Time;durP1;ratioP1;P1;durP2;ratioP2;P2;SDS_P1;SDS_P2;PMS_P1;PMS_P2;Temp;Humidity;BMP_temperature;BMP_pressure;BME280_temperature;BME280_humidity;BME280_pressure;Samples;Min_cycle;Max_cycle;Signal;HPM_P1;HPM_P2
2024/01/14 00:01:55;;;;;;;48.00;29.50;;;-1.00;90.60;;;;;;5055023;28;20479;-69
2024/01/14 00:04:21;;;;;;;43.40;28.00;;;-1.00;90.00;;;;;;5055095;28;20083;-71
2024/01/14 00:06:46;;;;;;;59.00;36.15;;;-1.10;90.00;;;;;;5054532;28;20032;-66
2024/01/14 00:09:13;;;;;;;43.58;27.67;;;-1.10;90.40;;;;;;5054983;28;20051;-71
2024/01/14 00:11:39;;;;;;;44.25;27.80;;;-1.10;90.80;;;;;;5054743;28;20031;-69
2024/01/14 00:14:04;;;;;;;57.13;33.17;;;-1.20;91.10;;;;;;5054743;28;20025;-71
2024/01/14 00:16:34;;;;;;;49.05;28.83;;;-1.10;91.50;;;;;;5054922;28;20040;-70
2024/01/14 00:19:03;;;;;;;66.15;37.25;;;-1.20;91.80;;;;;;5054540;28;20048;-69
2024/01/14 00:21:29;;;;;;;58.35;35.42;;;-1.10;92.00;;;;;;5054536;28;20525;-68
2024/01/14 00:23:55;;;;;;;52.15;32.13;;;-1.10;91.50;;;;;;5054642;28;20020;-66
2024/01/14 00:26:24;;;;;;;50.53;30.58;;;-1.10;90.90;;;;;;5054474;28;20433;-71
2024/01/14 00:28:52;;;;;;;49.97;30.55;;;-1.10;90.90;;;;;;5054248;28;20478;-66
2024/01/14 00:31:18;;;;;;;54.95;34.47;;;-1.10;90.90;;;;;;5054528;28;20116;-69
2024/01/14 00:33:44;;;;;;;54.97;32.35;;;-1.10;91.10;;;;;;5054629;28;20032;-69
2024/01/14 00:36:10;;;;;;;59.17;36.13;;;-1.20;91.40;;;;;;5054129;28;20017;-67
2024/01/14 00:38:36;;;;;;;87.10;49.15;;;-1.40;91.90;;;;;;5054211;28;20025;-66
2024/01/14 00:41:02;;;;;;;57.15;36.38;;;-1.50;92.50;;;;;;5054571;28;20378;-65
2024/01/14 00:43:28;;;;;;;54.70;34.47;;;-1.50;92.90;;;;;;5054053;28;20025;-67
2024/01/14 00:45:54;;;;;;;57.08;34.38;;;-1.50;91.20;;;;;;5054038;28;20150;-69
2024/01/14 00:48:19;;;;;;;50.30;30.58;;;-1.40;91.30;;;;;;5053992;28;20029;-67
2024/01/14 00:50:45;;;;;;;54.60;32.58;;;-1.50;90.60;;;;;;5053596;28;20033;-70
2024/01/14 00:53:11;;;;;;;51.08;31.58;;;-1.50;89.30;;;;;;5053765;28;20025;-67
2024/01/14 00:55:37;;;;;;;57.45;33.38;;;-1.50;88.00;;;;;;5053940;28;20121;-63
2024/01/14 00:58:03;;;;;;;48.35;30.80;;;-1.50;88.80;;;;;;5054240;28;20103;-72
2024/01/14 01:00:30;;;;;;;63.35;38.78;;;-1.50;87.50;;;;;;5053707;28;20110;-65
2024/01/14 01:02:55;;;;;;;71.45;40.78;;;-1.60;87.40;;;;;;5053875;28;20028;-69
2024/01/14 01:05:21;;;;;;;64.90;39.70;;;-1.60;86.50;;;;;;5054034;28;20021;-67
2024/01/14 01:07:47;;;;;;;59.08;35.45;;;-1.60;87.20;;;;;;5053355;28;20433;-72
2024/01/14 01:10:13;;;;;;;61.08;36.55;;;-1.60;87.00;;;;;;5053997;28;20080;-70
2024/01/14 01:12:38;;;;;;;54.95;32.03;;;-1.60;87.40;;;;;;5053861;28;20391;-69
2024/01/14 01:15:08;;;;;;;49.83;29.27;;;-1.70;86.70;;;;;;5053762;28;20526;-61
2024/01/14 01:17:34;;;;;;;53.78;32.17;;;-1.60;87.20;;;;;;5053672;28;20025;-68
2024/01/14 01:20:00;;;;;;;52.03;30.25;;;-1.70;87.20;;;;;;5052239;28;20560;-66
2024/01/14 01:22:27;;;;;;;50.80;28.77;;;-1.70;87.40;;;;;;5053467;28;20545;-69
2024/01/14 01:24:53;;;;;;;42.92;27.05;;;-1.80;90.30;;;;;;5053971;28;20036;-69
2024/01/14 01:27:18;;;;;;;51.25;29.25;;;-1.70;90.80;;;;;;5054148;28;20070;-63
2024/01/14 01:29:44;;;;;;;74.65;45.70;;;-1.70;91.30;;;;;;5053638;28;20552;-67
2024/01/14 01:32:10;;;;;;;93.22;51.90;;;-1.80;91.70;;;;;;5053257;28;20025;-69
2024/01/14 01:34:39;;;;;;;101.93;57.28;;;-1.90;92.70;;;;;;5053683;28;20029;-65
2024/01/14 01:37:05;;;;;;;84.13;46.83;;;-2.00;92.80;;;;;;5053485;28;20108;-66
2024/01/14 01:39:31;;;;;;;74.15;44.55;;;-2.10;93.70;;;;;;5053448;28;20114;-66
2024/01/14 01:41:57;;;;;;;79.03;46.58;;;-2.10;93.90;;;;;;5053785;28;20033;-66
2024/01/14 01:44:23;;;;;;;77.85;45.40;;;-2.00;93.60;;;;;;5053515;28;20020;-69
2024/01/14 01:46:50;;;;;;;77.68;45.67;;;-1.90;93.60;;;;;;5053367;28;20021;-69
2024/01/14 01:49:16;;;;;;;75.18;45.60;;;-1.90;93.20;;;;;;5053338;28;20052;-62
2024/01/14 01:51:47;;;;;;;55.80;34.53;;;-1.80;91.80;;;;;;5053369;28;20039;-72
2024/01/14 01:54:16;;;;;;;46.95;30.75;;;-1.90;91.20;;;;;;5053307;28;20025;-68
2024/01/14 01:56:42;;;;;;;42.47;26.75;;;-1.90;90.60;;;;;;5053694;28;20108;-70
2024/01/14 01:59:09;;;;;;;38.38;24.75;;;-1.90;90.70;;;;;;5053503;28;20494;-68
2024/01/14 02:01:36;;;;;;;45.20;29.92;;;-2.00;90.50;;;;;;5053866;28;20108;-68
2024/01/14 02:04:02;;;;;;;45.22;27.45;;;-1.90;89.80;;;;;;5057381;28;20021;-75
2024/01/14 02:06:28;;;;;;;39.55;24.83;;;-2.00;89.20;;;;;;5057345;28;20099;-69
2024/01/14 02:08:54;;;;;;;31.63;20.60;;;-2.00;88.90;;;;;;5057246;28;20025;-70
2024/01/14 02:11:20;;;;;;;32.53;21.10;;;-2.10;89.60;;;;;;5057098;28;20033;-67
2024/01/14 02:13:46;;;;;;;32.92;20.35;;;-2.10;89.30;;;;;;5057084;28;20029;-66
2024/01/14 02:16:15;;;;;;;32.75;21.52;;;-2.10;88.40;;;;;;5056690;28;20032;-68
2024/01/14 02:18:41;;;;;;;33.85;21.25;;;-2.00;88.50;;;;;;5056881;28;20095;-73
2024/01/14 02:21:09;;;;;;;32.75;20.80;;;-2.00;90.00;;;;;;5057074;28;20475;-66
2024/01/14 02:23:39;;;;;;;29.77;19.98;;;-2.00;90.00;;;;;;5056772;28;20028;-60
2024/01/14 02:26:05;;;;;;;28.95;18.17;;;-2.00;90.00;;;;;;5056969;28;20021;-63
2024/01/14 02:28:31;;;;;;;30.05;19.20;;;-2.00;90.10;;;;;;5056910;28;20032;-63
2024/01/14 02:30:57;;;;;;;29.48;17.48;;;-2.00;90.20;;;;;;5056607;28;20036;-63
2024/01/14 02:33:24;;;;;;;28.77;19.00;;;-2.00;90.40;;;;;;5056799;28;20021;-65
2024/01/14 02:35:50;;;;;;;27.30;17.88;;;-2.00;90.10;;;;;;5056934;28;20021;-65
2024/01/14 02:38:15;;;;;;;25.05;16.33;;;-1.90;90.10;;;;;;5056434;28;20494;-64
2024/01/14 02:40:41;;;;;;;26.42;17.63;;;-2.00;89.80;;;;;;5056876;28;20036;-67
2024/01/14 02:43:07;;;;;;;25.23;14.35;;;-2.00;90.00;;;;;;5056362;28;20021;-70
2024/01/14 02:45:32;;;;;;;25.95;14.77;;;-2.00;89.80;;;;;;5056688;28;20423;-70
2024/01/14 02:47:58;;;;;;;21.02;14.65;;;-2.00;88.80;;;;;;5056301;28;20050;-62
2024/01/14 02:50:24;;;;;;;20.95;14.27;;;-2.00;89.30;;;;;;5056925;28;20059;-72
2024/01/14 02:52:50;;;;;;;22.85;14.65;;;-2.00;90.30;;;;;;5056248;28;20444;-72
2024/01/14 02:55:17;;;;;;;24.10;14.82;;;-2.00;90.30;;;;;;5056183;28;20029;-64
2024/01/14 02:57:43;;;;;;;22.58;14.13;;;-2.00;90.50;;;;;;5056377;28;20463;-70
2024/01/14 03:00:11;;;;;;;22.38;14.82;;;-2.00;91.00;;;;;;5056080;28;20025;-71
2024/01/14 03:02:37;;;;;;;22.75;14.50;;;-2.00;90.90;;;;;;5055771;28;20024;-66
2024/01/14 03:05:04;;;;;;;25.35;16.20;;;-2.00;91.30;;;;;;5055983;28;20021;-68
2024/01/14 03:07:29;;;;;;;31.30;20.80;;;-2.00;91.00;;;;;;5056220;28;20033;-69
2024/01/14 03:09:55;;;;;;;23.35;15.52;;;-2.00;90.40;;;;;;5055923;28;20102;-71
2024/01/14 03:12:20;;;;;;;24.92;15.05;;;-2.10;90.30;;;;;;5055574;28;20017;-72
2024/01/14 03:14:46;;;;;;;24.10;15.00;;;-2.10;90.30;;;;;;5055850;28;20025;-67
2024/01/14 03:17:12;;;;;;;25.35;15.48;;;-2.10;88.80;;;;;;5055470;28;20025;-68
2024/01/14 03:19:37;;;;;;;22.63;15.35;;;-2.10;88.50;;;;;;5055546;28;20044;-60
2024/01/14 03:22:03;;;;;;;31.38;19.42;;;-2.10;87.70;;;;;;5055761;28;20431;-65
2024/01/14 03:24:29;;;;;;;23.40;15.40;;;-2.00;87.60;;;;;;5055887;28;20025;-70
2024/01/14 03:26:54;;;;;;;27.13;16.88;;;-2.10;88.10;;;;;;5055555;28;20451;-64
2024/01/14 03:29:20;;;;;;;23.90;15.00;;;-2.20;87.20;;;;;;5055492;28;20100;-66
2024/01/14 03:31:46;;;;;;;28.08;17.13;;;-2.20;87.60;;;;;;5055273;28;20025;-69
2024/01/14 03:34:11;;;;;;;23.30;15.63;;;-2.20;87.10;;;;;;5055468;28;20162;-75
2024/01/14 03:36:37;;;;;;;28.73;16.33;;;-2.20;88.20;;;;;;5055539;28;20356;-68
2024/01/14 03:39:06;;;;;;;26.38;15.35;;;-2.20;88.00;;;;;;5055228;28;20032;-66
2024/01/14 03:41:32;;;;;;;28.40;16.17;;;-2.30;88.80;;;;;;5055325;28;20025;-70
2024/01/14 03:43:58;;;;;;;25.10;15.13;;;-2.30;89.70;;;;;;5055319;28;20429;-65
2024/01/14 03:46:24;;;;;;;21.65;13.77;;;-2.20;88.10;;;;;;5055056;28;20100;-64
2024/01/14 03:48:49;;;;;;;19.77;13.48;;;-2.20;88.80;;;;;;5055346;28;20028;-66
2024/01/14 03:51:15;;;;;;;20.58;13.40;;;-2.20;88.60;;;;;;5055022;28;20033;-68
2024/01/14 03:53:41;;;;;;;21.30;13.48;;;-2.20;88.90;;;;;;5055125;28;20482;-63
2024/01/14 03:56:06;;;;;;;28.90;18.63;;;-2.30;87.00;;;;;;5054889;28;20020;-66
2024/01/14 03:58:32;;;;;;;24.45;15.80;;;-2.30;86.10;;;;;;5055107;28;20033;-67
2024/01/14 04:00:58;;;;;;;24.92;16.65;;;-2.30;85.80;;;;;;5054839;28;20025;-65
2024/01/14 04:03:24;;;;;;;28.88;19.45;;;-2.30;85.70;;;;;;5054777;28;20386;-68
2024/01/14 04:05:49;;;;;;;29.73;18.23;;;-2.30;86.50;;;;;;5054688;28;20079;-64
2024/01/14 04:08:15;;;;;;;28.45;17.80;;;-2.40;89.00;;;;;;5055213;28;20031;-68
2024/01/14 04:10:41;;;;;;;24.67;15.18;;;-2.50;90.20;;;;;;5053697;28;20063;-67
2024/01/14 04:13:06;;;;;;;21.80;14.52;;;-2.50;90.60;;;;;;5054634;28;20021;-67
2024/01/14 04:15:32;;;;;;;23.15;14.50;;;-2.40;90.50;;;;;;5054688;28;20475;-67
2024/01/14 04:17:58;;;;;;;24.65;15.10;;;-2.40;90.10;;;;;;5054675;28;20024;-68
2024/01/14 04:20:24;;;;;;;23.48;14.55;;;-2.40;89.60;;;;;;5054156;28;20056;-66
2024/01/14 04:22:50;;;;;;;18.75;11.93;;;-2.40;89.70;;;;;;5054639;28;20032;-61
2024/01/14 04:25:15;;;;;;;22.10;13.07;;;-2.50;90.40;;;;;;5053734;28;20021;-72
2024/01/14 04:27:42;;;;;;;20.27;14.00;;;-2.50;90.20;;;;;;5054411;28;20360;-68
2024/01/14 04:30:08;;;;;;;20.85;13.40;;;-2.40;90.20;;;;;;5054128;28;20036;-58
2024/01/14 04:32:34;;;;;;;18.65;12.48;;;-2.40;90.00;;;;;;5054676;28;20021;-65
2024/01/14 04:35:00;;;;;;;17.00;12.40;;;-2.40;90.00;;;;;;5054487;28;20017;-69
2024/01/14 04:37:25;;;;;;;18.70;11.93;;;-2.40;90.20;;;;;;5054290;28;20025;-68
2024/01/14 04:39:52;;;;;;;21.25;12.98;;;-2.40;89.90;;;;;;5054315;28;20014;-69
2024/01/14 04:42:17;;;;;;;17.35;11.05;;;-2.40;90.00;;;;;;5054420;28;20025;-69
2024/01/14 04:44:43;;;;;;;19.75;12.77;;;-2.40;88.30;;;;;;5053997;28;20467;-66
2024/01/14 04:47:09;;;;;;;23.67;14.90;;;-2.40;89.10;;;;;;5054211;28;20028;-71
2024/01/14 04:49:34;;;;;;;29.63;19.88;;;-2.40;88.20;;;;;;5054140;28;20143;-69
2024/01/14 04:52:00;;;;;;;26.88;16.25;;;-2.50;88.00;;;;;;5054021;28;20067;-73
2024/01/14 04:54:26;;;;;;;22.60;14.05;;;-2.50;88.90;;;;;;5054405;28;20073;-71
2024/01/14 04:56:52;;;;;;;23.83;15.45;;;-2.50;90.00;;;;;;5054187;28;20477;-67
2024/01/14 04:59:18;;;;;;;31.83;20.30;;;-2.50;88.60;;;;;;5054168;28;20020;-62
2024/01/14 05:01:44;;;;;;;35.63;20.80;;;-2.60;87.60;;;;;;5054138;28;20499;-68
2024/01/14 05:04:10;;;;;;;34.75;21.67;;;-2.60;89.20;;;;;;5054074;28;20017;-62
2024/01/14 05:06:35;;;;;;;39.33;25.30;;;-2.60;89.50;;;;;;5053981;28;20497;-66
2024/01/14 05:09:01;;;;;;;35.90;23.52;;;-2.50;88.30;;;;;;5054415;28;20341;-60
2024/01/14 05:11:27;;;;;;;31.95;19.13;;;-2.60;90.70;;;;;;5053778;28;20036;-71
2024/01/14 05:13:53;;;;;;;39.78;23.20;;;-2.70;91.70;;;;;;5053973;28;20025;-66
2024/01/14 05:16:18;;;;;;;44.05;26.90;;;-2.70;91.90;;;;;;5053749;28;20028;-66
2024/01/14 05:18:45;;;;;;;56.08;31.45;;;-2.60;92.20;;;;;;5053351;28;20441;-61
2024/01/14 05:21:16;;;;;;;42.03;24.98;;;-2.50;91.80;;;;;;5053824;28;20060;-67
2024/01/14 05:23:42;;;;;;;37.70;22.10;;;-2.50;92.10;;;;;;5053617;28;20025;-71
2024/01/14 05:26:08;;;;;;;33.58;21.98;;;-2.50;91.90;;;;;;5053621;28;20031;-65
2024/01/14 05:28:33;;;;;;;45.33;26.20;;;-2.50;92.00;;;;;;5053465;28;20028;-69
2024/01/14 05:30:59;;;;;;;29.65;18.83;;;-2.60;92.50;;;;;;5053410;28;20021;-66
2024/01/14 05:33:24;;;;;;;34.78;20.33;;;-2.60;93.20;;;;;;5053678;28;20078;-68
2024/01/14 05:35:50;;;;;;;28.80;16.85;;;-2.60;93.30;;;;;;5054884;28;20025;-62
2024/01/14 05:38:17;;;;;;;27.30;17.55;;;-2.50;93.10;;;;;;5057863;28;20356;-69
2024/01/14 05:40:42;;;;;;;26.48;16.88;;;-2.50;92.10;;;;;;5057973;28;20490;-65
2024/01/14 05:43:08;;;;;;;25.10;15.57;;;-2.50;91.70;;;;;;5057678;28;20017;-66
2024/01/14 05:45:33;;;;;;;22.98;14.80;;;-2.50;91.40;;;;;;5057366;28;20386;-65
2024/01/14 05:47:59;;;;;;;25.83;15.70;;;-2.50;91.10;;;;;;5057698;28;20043;-69
2024/01/14 05:50:25;;;;;;;27.08;17.33;;;-2.50;91.10;;;;;;5057486;28;20029;-62
2024/01/14 05:52:50;;;;;;;37.47;24.65;;;-2.60;91.10;;;;;;5057497;28;20033;-69
2024/01/14 05:55:16;;;;;;;24.70;15.98;;;-2.60;91.90;;;;;;5057269;28;20103;-65
2024/01/14 05:57:42;;;;;;;24.40;14.95;;;-2.60;92.00;;;;;;5057376;28;20104;-66
2024/01/14 06:00:08;;;;;;;23.90;15.55;;;-2.60;91.90;;;;;;5057464;28;20438;-71
2024/01/14 06:02:33;;;;;;;23.30;14.68;;;-2.50;92.00;;;;;;5057152;28;20018;-60
2024/01/14 06:04:59;;;;;;;21.63;14.38;;;-2.50;91.50;;;;;;5057472;28;20028;-69
2024/01/14 06:07:25;;;;;;;21.17;13.85;;;-2.40;91.30;;;;;;5057243;28;20021;-68
2024/01/14 06:09:50;;;;;;;28.90;18.83;;;-2.30;91.70;;;;;;5057108;28;20037;-63
2024/01/14 06:12:16;;;;;;;27.30;18.08;;;-2.30;91.30;;;;;;5056910;28;20025;-60
2024/01/14 06:14:42;;;;;;;29.45;21.33;;;-2.30;91.20;;;;;;5057018;28;20493;-63
2024/01/14 06:17:08;;;;;;;23.10;16.00;;;-2.40;91.50;;;;;;5057009;28;20115;-67
2024/01/14 06:19:34;;;;;;;47.05;30.40;;;-2.40;92.20;;;;;;5057044;28;20040;-66
2024/01/14 06:22:00;;;;;;;32.42;19.75;;;-2.40;92.10;;;;;;5057000;28;20053;-68
2024/01/14 06:24:26;;;;;;;35.53;21.10;;;-2.50;92.70;;;;;;5056883;28;20029;-70
2024/01/14 06:26:52;;;;;;;31.65;20.33;;;-2.40;93.20;;;;;;5056770;28;20131;-64
2024/01/14 06:29:18;;;;;;;65.55;40.17;;;-2.30;93.20;;;;;;5057007;28;20096;-67
2024/01/14 06:31:45;;;;;;;48.30;29.95;;;-2.20;92.90;;;;;;5057350;28;20108;-67
2024/01/14 06:34:11;;;;;;;35.08;23.50;;;-2.20;92.50;;;;;;5056846;28;20052;-75
2024/01/14 06:36:37;;;;;;;43.70;26.23;;;-2.20;92.70;;;;;;5056722;28;20020;-67
2024/01/14 06:39:05;;;;;;;31.25;20.45;;;-2.20;92.10;;;;;;5056715;28;20021;-69
2024/01/14 06:41:31;;;;;;;32.78;21.83;;;-2.20;92.00;;;;;;5056712;28;20063;-67
2024/01/14 06:43:57;;;;;;;37.55;23.95;;;-2.10;91.90;;;;;;5057201;28;20025;-64
2024/01/14 06:46:23;;;;;;;36.22;20.90;;;-2.10;91.90;;;;;;5056796;28;20501;-66
2024/01/14 06:48:48;;;;;;;30.35;19.73;;;-2.00;91.90;;;;;;5055971;28;20048;-62
2024/01/14 06:51:14;;;;;;;29.38;17.83;;;-2.00;92.50;;;;;;5056468;28;20036;-69
2024/01/14 06:53:40;;;;;;;35.13;21.52;;;-1.90;91.50;;;;;;5056421;28;20021;-66
2024/01/14 06:56:06;;;;;;;31.33;19.55;;;-1.90;91.50;;;;;;5056454;28;20025;-72
2024/01/14 06:58:33;;;;;;;26.48;16.38;;;-1.90;91.90;;;;;;5056437;28;20017;-68
2024/01/14 07:00:58;;;;;;;36.78;22.85;;;-1.90;91.50;;;;;;5056319;28;20467;-61
2024/01/14 07:03:24;;;;;;;32.42;19.83;;;-1.80;91.50;;;;;;5056051;28;20025;-67
2024/01/14 07:05:50;;;;;;;40.75;23.65;;;-1.70;91.20;;;;;;5056948;28;20028;-63
2024/01/14 07:08:15;;;;;;;27.17;17.42;;;-1.70;90.80;;;;;;5056443;28;20017;-67
2024/01/14 07:10:41;;;;;;;25.50;17.80;;;-1.70;91.20;;;;;;5056347;28;20033;-66
2024/01/14 07:13:07;;;;;;;29.67;19.67;;;-1.60;90.80;;;;;;5056026;28;20071;-59
2024/01/14 07:15:32;;;;;;;30.08;18.67;;;-1.60;90.60;;;;;;5056038;28;20412;-65
2024/01/14 07:17:58;;;;;;;28.02;18.73;;;-1.50;90.80;;;;;;5055786;28;20064;-70
2024/01/14 07:20:24;;;;;;;43.40;27.05;;;-1.40;91.10;;;;;;5055422;28;20061;-69
2024/01/14 07:22:49;;;;;;;51.72;31.52;;;-1.30;90.50;;;;;;5055744;28;20020;-62
2024/01/14 07:25:15;;;;;;;61.30;38.83;;;-1.30;90.30;;;;;;5055611;28;20017;-67
2024/01/14 07:27:40;;;;;;;61.53;38.28;;;-1.30;90.50;;;;;;5055534;28;20017;-68
2024/01/14 07:30:06;;;;;;;63.25;40.97;;;-1.20;91.00;;;;;;5054587;28;20470;-69
2024/01/14 07:32:33;;;;;;;59.53;40.70;;;-1.10;90.80;;;;;;5055571;28;20060;-65
2024/01/14 07:34:58;;;;;;;54.70;36.05;;;-0.90;91.20;;;;;;5055791;28;20044;-70
2024/01/14 07:37:24;;;;;;;57.75;38.63;;;-0.70;90.60;;;;;;5055210;28;20021;-69
2024/01/14 07:39:50;;;;;;;46.25;31.65;;;-0.50;90.20;;;;;;5055349;28;20051;-70
2024/01/14 07:42:16;;;;;;;45.25;31.25;;;-0.40;87.80;;;;;;5055624;28;20048;-64
2024/01/14 07:44:43;;;;;;;40.63;28.52;;;-0.30;88.50;;;;;;5055070;28;20021;-62
2024/01/14 07:47:08;;;;;;;43.35;27.25;;;-0.30;86.20;;;;;;5055517;28;20028;-66
2024/01/14 07:49:34;;;;;;;35.92;25.15;;;0.10;84.50;;;;;;5055195;28;20033;-64
2024/01/14 07:51:59;;;;;;;38.90;25.98;;;0.60;79.10;;;;;;5055005;28;20668;-72
2024/01/14 07:54:25;;;;;;;41.05;26.77;;;0.90;74.40;;;;;;5055155;28;20025;-65
2024/01/14 07:56:52;;;;;;;57.22;39.35;;;0.80;71.90;;;;;;5055161;28;20021;-64
2024/01/14 07:59:20;;;;;;;57.53;40.55;;;0.50;72.90;;;;;;5053762;28;20025;-65
2024/01/14 08:01:46;;;;;;;43.03;31.38;;;0.50;74.30;;;;;;5054869;28;20471;-71
2024/01/14 08:04:12;;;;;;;68.72;43.92;;;0.30;78.20;;;;;;5054923;28;20028;-68
2024/01/14 08:06:37;;;;;;;60.50;41.45;;;0.40;76.40;;;;;;5054366;28;20024;-72
2024/01/14 08:09:03;;;;;;;64.43;44.25;;;0.30;77.70;;;;;;5054807;28;20031;-68
2024/01/14 08:11:29;;;;;;;57.60;38.25;;;0.30;78.10;;;;;;5054787;28;20037;-66
2024/01/14 08:13:54;;;;;;;54.85;36.05;;;0.40;80.20;;;;;;5054494;28;20021;-68
2024/01/14 08:16:20;;;;;;;48.00;33.80;;;0.70;80.20;;;;;;5054559;28;20021;-68
2024/01/14 08:18:46;;;;;;;47.67;33.70;;;1.10;77.90;;;;;;5054354;28;20099;-65
2024/01/14 08:21:11;;;;;;;47.72;34.83;;;1.50;77.50;;;;;;5054328;28;20029;-68
2024/01/14 08:23:38;;;;;;;50.13;37.58;;;2.00;71.70;;;;;;5054590;28;20021;-62
2024/01/14 08:26:04;;;;;;;49.03;35.33;;;2.90;67.30;;;;;;5054430;28;20033;-63
2024/01/14 08:28:32;;;;;;;48.78;35.00;;;4.20;59.90;;;;;;5054785;28;20506;-64
2024/01/14 08:30:57;;;;;;;46.10;33.17;;;5.10;56.70;;;;;;5054129;28;20036;-66
2024/01/14 08:33:23;;;;;;;41.75;31.00;;;5.40;51.60;;;;;;5054469;28;20028;-69
2024/01/14 08:35:49;;;;;;;36.45;27.83;;;4.90;51.20;;;;;;5054251;28;20027;-70
2024/01/14 08:38:14;;;;;;;34.63;25.63;;;4.20;52.50;;;;;;5054271;28;20098;-66
2024/01/14 08:40:40;;;;;;;30.75;24.35;;;3.80;54.30;;;;;;5054423;28;20032;-68
2024/01/14 08:43:05;;;;;;;35.05;26.92;;;3.50;54.70;;;;;;5054297;28;20025;-71
2024/01/14 08:45:31;;;;;;;34.70;26.75;;;3.30;55.60;;;;;;5054113;28;20033;-61
2024/01/14 08:47:57;;;;;;;48.78;35.00;;;3.20;57.00;;;;;;5053944;28;20021;-68
2024/01/14 08:50:22;;;;;;;101.10;65.93;;;3.10;57.30;;;;;;5054029;28;20029;-62
2024/01/14 08:52:48;;;;;;;111.93;78.47;;;2.80;59.30;;;;;;5053940;28;20021;-63
2024/01/14 08:55:14;;;;;;;90.63;60.95;;;2.50;63.60;;;;;;5053950;28;20017;-66
2024/01/14 08:57:39;;;;;;;89.00;61.75;;;2.50;65.50;;;;;;5053697;28;20029;-65
2024/01/14 09:00:06;;;;;;;88.82;62.60;;;2.70;65.30;;;;;;5053902;28;20024;-71
2024/01/14 09:02:32;;;;;;;112.65;75.13;;;2.80;65.40;;;;;;5053622;28;20029;-70
2024/01/14 09:04:58;;;;;;;86.25;60.53;;;3.00;65.60;;;;;;5053703;28;20025;-66
2024/01/14 09:07:24;;;;;;;88.47;63.67;;;3.10;65.30;;;;;;5053758;28;20123;-71
2024/01/14 09:09:50;;;;;;;88.93;64.90;;;3.30;62.60;;;;;;5052469;28;20387;-67
2024/01/14 09:12:16;;;;;;;97.05;68.70;;;3.40;62.70;;;;;;5053308;28;20029;-66
2024/01/14 09:14:41;;;;;;;93.50;67.82;;;3.70;61.90;;;;;;5053792;28;20029;-64
2024/01/14 09:17:08;;;;;;;88.95;65.28;;;3.90;60.70;;;;;;5053478;28;20021;-72
2024/01/14 09:19:34;;;;;;;89.00;62.28;;;4.00;61.00;;;;;;5053198;28;20041;-68
2024/01/14 09:22:01;;;;;;;74.57;57.38;;;4.20;60.80;;;;;;5053848;28;20049;-72
2024/01/14 09:24:26;;;;;;;76.97;55.60;;;4.40;59.10;;;;;;5053745;28;20408;-64
2024/01/14 09:26:52;;;;;;;73.97;54.53;;;4.40;59.40;;;;;;5053745;28;20029;-63
2024/01/14 09:29:18;;;;;;;87.90;66.25;;;4.60;61.90;;;;;;5054149;28;20021;-69
2024/01/14 09:31:43;;;;;;;76.22;57.63;;;4.80;58.40;;;;;;5052776;28;20479;-69
2024/01/14 09:34:09;;;;;;;72.70;54.60;;;5.00;57.50;;;;;;5053553;28;20059;-69
2024/01/14 09:36:36;;;;;;;59.28;47.10;;;5.20;57.70;;;;;;5054164;28;20056;-66
2024/01/14 09:39:01;;;;;;;98.63;72.95;;;5.40;57.20;;;;;;5053780;28;20124;-64
2024/01/14 09:41:53;;;;;;;69.88;54.53;;;5.40;55.10;;;;;;5053601;28;20104;-68
2024/01/14 09:44:19;;;;;;;71.90;55.95;;;5.50;55.80;;;;;;5054012;28;20071;-64
2024/01/14 09:46:46;;;;;;;83.38;64.15;;;5.60;55.10;;;;;;5053657;28;20035;-67
2024/01/14 09:49:15;;;;;;;79.43;62.65;;;5.60;56.80;;;;;;5053430;28;20036;-66
2024/01/14 09:51:41;;;;;;;70.97;58.13;;;5.70;55.50;;;;;;5053713;28;20025;-67
2024/01/14 09:54:07;;;;;;;62.92;49.55;;;5.60;56.50;;;;;;5053827;28;20387;-67
2024/01/14 09:56:34;;;;;;;56.90;45.33;;;5.70;56.20;;;;;;5053590;28;20017;-66
2024/01/14 09:59:02;;;;;;;47.85;39.03;;;5.60;54.50;;;;;;5053850;28;20056;-69
2024/01/14 10:01:33;;;;;;;45.90;38.97;;;5.60;55.70;;;;;;5053536;28;20036;-71
2024/01/14 10:04:00;;;;;;;48.28;38.80;;;5.70;55.60;;;;;;5053467;28;20026;-65
2024/01/14 10:06:26;;;;;;;44.30;36.33;;;5.70;55.50;;;;;;5053621;28;20175;-71
2024/01/14 10:08:52;;;;;;;50.25;40.17;;;5.80;55.80;;;;;;5053181;28;20025;-70
2024/01/14 10:11:18;;;;;;;59.13;45.80;;;5.90;56.60;;;;;;5053316;28;20032;-71
2024/01/14 10:13:43;;;;;;;56.28;45.20;;;6.10;57.10;;;;;;5053236;28;20100;-68
2024/01/14 10:16:12;;;;;;;70.20;52.17;;;6.20;58.30;;;;;;5053152;28;20422;-68
2024/01/14 10:18:37;;;;;;;61.20;49.03;;;6.50;56.40;;;;;;5052623;28;20025;-68
2024/01/14 10:21:04;;;;;;;68.15;54.15;;;6.60;56.80;;;;;;5053022;28;20025;-74
2024/01/14 10:23:31;;;;;;;94.00;72.93;;;6.70;58.20;;;;;;5054868;28;20053;-69
2024/01/14 10:26:01;;;;;;;104.78;83.15;;;6.80;56.70;;;;;;5056889;28;20032;-65
2024/01/14 10:28:34;;;;;;;92.38;73.68;;;6.90;57.30;;;;;;5056950;28;20112;-66
2024/01/14 10:31:04;;;;;;;82.72;66.60;;;6.90;57.40;;;;;;5056901;28;20033;-71
2024/01/14 10:33:34;;;;;;;85.13;66.85;;;7.00;56.20;;;;;;5056333;28;20032;-71
2024/01/14 10:36:00;;;;;;;116.53;87.40;;;7.10;56.90;;;;;;5056980;28;20033;-68
2024/01/14 10:38:26;;;;;;;147.05;108.65;;;7.20;54.60;;;;;;5056593;28;20029;-70
2024/01/14 10:40:53;;;;;;;109.55;89.50;;;7.00;55.00;;;;;;5056637;28;20104;-72
2024/01/14 10:43:23;;;;;;;108.63;86.28;;;6.90;55.60;;;;;;5056232;28;20040;-66
2024/01/14 10:45:51;;;;;;;90.18;74.88;;;7.00;56.60;;;;;;5056500;28;20075;-63
2024/01/14 10:48:23;;;;;;;81.82;65.18;;;7.20;56.30;;;;;;5056616;28;20024;-60
2024/01/14 10:50:54;;;;;;;69.45;55.10;;;7.40;54.00;;;;;;5056014;28;20040;-62
2024/01/14 10:53:24;;;;;;;64.75;52.67;;;7.50;54.40;;;;;;5056442;28;20029;-67
2024/01/14 10:56:11;;;;;;;59.85;48.08;;;7.70;52.90;;;;;;5056097;28;20051;-69
2024/01/14 10:58:41;;;;;;;63.80;51.10;;;7.80;53.50;;;;;;5055819;28;20024;-71
2024/01/14 11:01:12;;;;;;;57.35;47.10;;;7.80;53.20;;;;;;5055884;28;20021;-66
2024/01/14 11:03:38;;;;;;;58.13;48.08;;;7.80;52.80;;;;;;5056035;28;20018;-66
2024/01/14 11:06:05;;;;;;;65.72;51.67;;;7.90;52.10;;;;;;5055856;28;20391;-66
2024/01/14 11:08:33;;;;;;;59.65;50.00;;;8.00;54.10;;;;;;5056020;28;20028;-67
2024/01/14 11:11:00;;;;;;;61.05;52.25;;;8.20;53.20;;;;;;5055910;28;20025;-68
2024/01/14 11:13:33;;;;;;;59.33;49.92;;;8.20;51.70;;;;;;5056042;28;20116;-65
2024/01/14 11:16:18;;;;;;;84.63;67.82;;;8.30;52.90;;;;;;5056000;28;20092;-69
2024/01/14 11:18:55;;;;;;;84.40;69.20;;;8.50;52.40;;;;;;5055522;28;20406;-68
2024/01/14 11:21:44;;;;;;;93.72;76.75;;;8.60;52.70;;;;;;5055795;28;20028;-63
2024/01/14 11:24:10;;;;;;;104.97;86.07;;;8.70;54.00;;;;;;5055712;28;20021;-65
2024/01/14 11:26:36;;;;;;;90.45;74.28;;;8.90;53.50;;;;;;5055621;28;20035;-59
2024/01/14 11:29:05;;;;;;;121.88;102.18;;;9.00;51.90;;;;;;5055942;28;20017;-67
2024/01/14 11:32:11;;;;;;;108.22;92.28;;;9.00;51.00;;;;;;5055465;28;20033;-66
2024/01/14 11:34:46;;;;;;;111.35;96.13;;;8.80;51.20;;;;;;5055576;28;20029;-69
2024/01/14 11:37:44;;;;;;;130.98;109.68;;;8.80;51.50;;;;;;5055249;28;20045;-69
2024/01/14 11:40:14;;;;;;;115.05;99.05;;;8.80;52.30;;;;;;5055012;28;20075;-60
2024/01/14 11:42:56;;;;;;;122.20;105.30;;;8.70;51.70;;;;;;5055634;28;20025;-68
2024/01/14 11:45:24;;;;;;;124.85;108.57;;;8.80;51.10;;;;;;5054062;28;20059;-67
2024/01/14 11:47:52;;;;;;;119.65;104.10;;;8.80;50.50;;;;;;5055080;28;20041;-63
2024/01/14 11:50:23;;;;;;;130.10;110.80;;;8.80;50.40;;;;;;5055287;28;20035;-72
2024/01/14 11:52:50;;;;;;;140.88;117.82;;;9.00;50.70;;;;;;5055217;28;20045;-71
2024/01/14 11:55:24;;;;;;;153.23;126.30;;;9.00;50.80;;;;;;5054964;28;20702;-62
2024/01/14 11:57:50;;;;;;;275.25;228.35;;;9.10;50.50;;;;;;5054927;28;20025;-66
2024/01/14 12:00:26;;;;;;;303.73;252.13;;;8.90;52.90;;;;;;5054843;28;20025;-72
2024/01/14 12:03:07;;;;;;;303.35;252.18;;;8.40;54.50;;;;;;5054833;28;20091;-65
2024/01/14 12:05:33;;;;;;;278.33;228.82;;;8.20;55.00;;;;;;5054943;28;20374;-63
2024/01/14 12:08:00;;;;;;;236.40;189.05;;;8.10;57.60;;;;;;5054679;28;20033;-66
2024/01/14 12:10:28;;;;;;;220.07;176.70;;;7.90;61.00;;;;;;5054645;28;20037;-66
2024/01/14 12:12:55;;;;;;;217.43;167.60;;;7.70;64.00;;;;;;5054646;28;20036;-69
2024/01/14 12:15:21;;;;;;;197.65;156.50;;;7.80;65.40;;;;;;5054528;28;20017;-62
2024/01/14 12:17:57;;;;;;;244.27;200.00;;;8.00;67.10;;;;;;5054563;28;20155;-58
2024/01/14 12:20:24;;;;;;;211.32;171.88;;;8.20;63.00;;;;;;5054178;28;20059;-63
2024/01/14 12:23:02;;;;;;;222.68;181.35;;;8.20;64.50;;;;;;5054290;28;20017;-72
2024/01/14 12:25:29;;;;;;;206.07;168.35;;;8.40;65.00;;;;;;5054290;28;20040;-62
2024/01/14 12:27:55;;;;;;;193.27;161.88;;;8.50;63.80;;;;;;5054214;28;20053;-60